Time;durP1;ratioP1;P1;durP2;ratioP2;P2;SDS_P1;SDS_P2;PMS_P1;PMS_P2;Temp;Humidity;BMP_temperature;BMP_pressure;BME280_temperature;BME280_humidity;BME280_pressure;Samples;Min_cycle;Max_cycle;Signal;HPM_P1;HPM_P2
2024/03/21 00:01:47;;;;;;;7.77;2.90;;;10.70;99.90;;;;;;5045117;28;20025;-48
2024/03/21 00:04:13;;;;;;;7.03;2.80;;;10.70;99.90;;;;;;5041598;28;20092;-48
2024/03/21 00:06:39;;;;;;;8.17;3.07;;;10.80;99.90;;;;;;5014953;28;20112;-49
2024/03/21 00:09:08;;;;;;;7.90;2.80;;;10.70;99.90;;;;;;5034125;28;20117;-53
2024/03/21 00:11:34;;;;;;;7.90;2.90;;;10.70;99.90;;;;;;5049949;28;20432;-50
2024/03/21 00:13:59;;;;;;;7.07;3.43;;;10.70;99.90;;;;;;5018833;28;20029;-50
2024/03/21 00:16:25;;;;;;;5.67;2.53;;;10.70;99.90;;;;;;5041118;28;20048;-49
2024/03/21 00:18:51;;;;;;;7.70;3.20;;;10.70;99.90;;;;;;5044739;28;20540;-50
2024/03/21 00:21:16;;;;;;;7.13;2.80;;;10.60;99.90;;;;;;5042840;28;20036;-49
2024/03/21 00:23:42;;;;;;;8.00;2.70;;;10.60;99.90;;;;;;5025327;28;20437;-53
2024/03/21 00:26:08;;;;;;;4.87;2.80;;;10.60;99.90;;;;;;5014687;28;20040;-51
2024/03/21 00:28:33;;;;;;;7.80;2.80;;;10.60;99.90;;;;;;5045704;28;20406;-51
2024/03/21 00:30:59;;;;;;;6.03;2.83;;;10.60;99.90;;;;;;5014418;28;20033;-52
2024/03/21 00:33:24;;;;;;;8.53;3.00;;;10.60;99.90;;;;;;5014271;28;20045;-47
2024/03/21 00:35:51;;;;;;;5.70;2.40;;;10.60;99.90;;;;;;5041003;28;20021;-50
2024/03/21 00:38:17;;;;;;;5.73;2.87;;;10.50;99.90;;;;;;5022532;28;20030;-53
2024/03/21 00:40:43;;;;;;;9.90;3.37;;;10.60;99.90;;;;;;5014020;28;20084;-48
2024/03/21 00:43:08;;;;;;;8.47;3.27;;;10.60;99.90;;;;;;5041640;28;20030;-49
2024/03/21 00:45:34;;;;;;;8.07;3.10;;;10.60;99.90;;;;;;5049317;28;20037;-49
2024/03/21 00:48:02;;;;;;;7.77;3.03;;;10.70;99.90;;;;;;5041855;28;20033;-50
2024/03/21 00:50:31;;;;;;;6.93;3.58;;;10.70;99.90;;;;;;5038033;28;20517;-48
2024/03/21 00:52:57;;;;;;;5.13;3.00;;;10.70;99.90;;;;;;5039609;28;20020;-49
2024/03/21 00:55:23;;;;;;;7.13;3.20;;;10.70;99.90;;;;;;5036958;28;20506;-47
2024/03/21 00:57:48;;;;;;;8.63;3.63;;;10.80;99.90;;;;;;5033707;28;20036;-48
2024/03/21 01:00:14;;;;;;;7.43;3.00;;;10.80;99.90;;;;;;5025574;28;20026;-47
2024/03/21 01:02:40;;;;;;;9.73;3.50;;;10.80;99.90;;;;;;5048234;28;20029;-48
2024/03/21 01:05:08;;;;;;;8.83;3.37;;;10.90;99.90;;;;;;5025761;28;20020;-48
2024/03/21 01:07:34;;;;;;;7.23;2.97;;;10.90;99.90;;;;;;5014048;28;20034;-50
2024/03/21 01:09:59;;;;;;;6.77;3.10;;;11.00;99.90;;;;;;5032914;28;20423;-49
2024/03/21 01:12:25;;;;;;;7.43;3.07;;;11.00;99.90;;;;;;5041007;28;20025;-47
2024/03/21 01:14:51;;;;;;;8.97;3.47;;;11.00;99.90;;;;;;5024586;28;20022;-47
2024/03/21 01:17:18;;;;;;;9.03;3.23;;;11.10;99.90;;;;;;5039505;28;20101;-47
2024/03/21 01:19:43;;;;;;;6.00;3.03;;;11.10;99.90;;;;;;5038343;28;20359;-48
2024/03/21 01:22:09;;;;;;;6.10;3.03;;;11.20;99.90;;;;;;5047135;28;20116;-48
2024/03/21 01:24:34;;;;;;;7.87;3.20;;;11.20;99.90;;;;;;5050832;28;20041;-48
2024/03/21 01:27:00;;;;;;;7.90;3.33;;;11.10;99.90;;;;;;5052832;28;20112;-48
2024/03/21 01:29:26;;;;;;;9.23;3.13;;;11.10;99.90;;;;;;5053145;28;20033;-50
2024/03/21 01:31:52;;;;;;;7.87;3.20;;;11.10;99.90;;;;;;5027989;28;20025;-50
2024/03/21 01:34:18;;;;;;;7.17;3.20;;;11.10;99.90;;;;;;5032828;28;20029;-52
2024/03/21 01:36:52;;;;;;;10.30;3.57;;;11.10;99.90;;;;;;5028581;28;20025;-47
2024/03/21 01:39:19;;;;;;;9.67;3.47;;;11.10;99.90;;;;;;5024394;28;20765;-48
2024/03/21 01:41:45;;;;;;;10.57;3.50;;;11.10;99.90;;;;;;5031316;28;20620;-49
2024/03/21 01:44:20;;;;;;;11.20;5.27;;;11.10;99.90;;;;;;5042964;28;20071;-49
2024/03/21 01:46:46;;;;;;;28.83;14.07;;;11.00;99.90;;;;;;5032943;28;20543;-52
2024/03/21 01:49:13;;;;;;;26.23;15.70;;;11.10;99.90;;;;;;5043631;28;20033;-50
2024/03/21 01:51:40;;;;;;;30.53;17.50;;;11.10;99.90;;;;;;5043548;28;20028;-49
2024/03/21 01:54:07;;;;;;;32.90;19.53;;;11.10;99.90;;;;;;5015577;28;20443;-51
2024/03/21 01:56:37;;;;;;;30.03;18.60;;;11.20;99.90;;;;;;5019537;28;20024;-51
2024/03/21 01:59:09;;;;;;;32.00;17.97;;;11.30;99.90;;;;;;5043366;28;20029;-49
2024/03/21 02:01:36;;;;;;;38.50;20.63;;;11.20;99.90;;;;;;5032457;28;20064;-51
2024/03/21 02:04:03;;;;;;;39.07;21.00;;;11.30;99.90;;;;;;5045015;28;20041;-50
2024/03/21 02:06:33;;;;;;;34.90;20.23;;;11.30;99.90;;;;;;5016958;28;20065;-51
2024/03/21 02:09:01;;;;;;;;;;;11.40;99.90;;;;;;5040060;28;20506;-49
2024/03/21 02:11:27;;;;;;;35.33;19.43;;;11.40;99.90;;;;;;5021867;28;19913;-49
2024/03/21 02:13:54;;;;;;;34.37;19.47;;;11.40;99.90;;;;;;5032261;28;20025;-49
2024/03/21 02:16:23;;;;;;;35.60;19.50;;;11.40;99.90;;;;;;5040736;28;20515;-50
2024/03/21 02:18:50;;;;;;;28.92;16.50;;;11.50;99.90;;;;;;5010202;28;20033;-52
2024/03/21 02:24:00;;;;;;;19.70;11.83;;;11.40;99.90;;;;;;5019922;28;20034;-51
2024/03/21 02:26:26;;;;;;;21.30;12.30;;;11.40;99.90;;;;;;5027935;28;20124;-47
2024/03/21 02:28:52;;;;;;;21.73;11.93;;;11.40;99.90;;;;;;5031900;28;20033;-51
2024/03/21 02:31:19;;;;;;;19.80;9.13;;;11.30;99.90;;;;;;5031880;28;20057;-48
2024/03/21 02:33:45;;;;;;;16.77;7.80;;;11.30;99.90;;;;;;5037154;28;20079;-49
2024/03/21 02:36:11;;;;;;;14.27;8.83;;;11.20;99.90;;;;;;5019679;28;20030;-50
2024/03/21 02:38:36;;;;;;;16.47;9.33;;;11.20;99.90;;;;;;5012300;28;20030;-49
2024/03/21 02:41:02;;;;;;;15.67;7.57;;;11.10;99.90;;;;;;5013669;28;20164;-47
2024/03/21 02:43:27;;;;;;;14.13;7.17;;;11.10;99.90;;;;;;5014003;28;20033;-50
2024/03/21 02:45:53;;;;;;;15.33;7.80;;;11.00;99.90;;;;;;5041029;28;20670;-49
2024/03/21 02:48:19;;;;;;;13.47;7.17;;;11.00;99.90;;;;;;5025199;28;20033;-51
2024/03/21 02:50:44;;;;;;;14.03;7.17;;;11.00;99.90;;;;;;5022552;28;20087;-50
2024/03/21 02:53:10;;;;;;;13.90;8.30;;;10.90;99.90;;;;;;5016354;28;20028;-51
2024/03/21 02:55:35;;;;;;;19.03;9.00;;;10.90;99.90;;;;;;5011776;28;20030;-50
2024/03/21 02:58:01;;;;;;;22.23;11.93;;;10.90;99.90;;;;;;5011992;28;20113;-51
2024/03/21 03:00:26;;;;;;;29.67;15.53;;;10.90;99.90;;;;;;5011916;28;20041;-47
2024/03/21 03:02:52;;;;;;;21.23;12.63;;;10.90;99.90;;;;;;5036967;28;20481;-50
2024/03/21 03:05:20;;;;;;;18.80;10.00;;;10.90;99.90;;;;;;5033106;28;20116;-53
2024/03/21 03:07:45;;;;;;;22.37;11.97;;;10.90;99.90;;;;;;5047078;28;20037;-52
2024/03/21 03:10:12;;;;;;;23.53;12.80;;;10.90;99.90;;;;;;5031415;28;20037;-52
2024/03/21 03:12:37;;;;;;;20.60;11.37;;;10.90;99.90;;;;;;5024364;28;20030;-51
2024/03/21 03:15:04;;;;;;;25.53;14.00;;;10.90;99.90;;;;;;5040616;28;20079;-50
2024/03/21 03:17:29;;;;;;;21.20;13.07;;;10.90;99.90;;;;;;5020080;28;20534;-51
2024/03/21 03:19:55;;;;;;;21.93;13.20;;;10.80;99.90;;;;;;5012468;28;20033;-51
2024/03/21 03:22:20;;;;;;;27.47;14.83;;;10.80;99.90;;;;;;5035529;28;20033;-52
2024/03/21 03:24:46;;;;;;;27.70;14.93;;;10.80;99.90;;;;;;5037303;28;20026;-48
2024/03/21 03:27:12;;;;;;;27.87;13.77;;;10.80;99.90;;;;;;5032168;28;20041;-50
2024/03/21 03:29:37;;;;;;;27.47;13.90;;;10.80;99.90;;;;;;5038842;28;20053;-52
2024/03/21 03:32:03;;;;;;;23.97;13.53;;;10.80;99.90;;;;;;5020495;28;20034;-49
2024/03/21 03:37:14;;;;;;;24.63;13.77;;;10.70;99.90;;;;;;5025958;28;20026;-51
2024/03/21 03:39:39;;;;;;;28.57;15.77;;;10.70;99.90;;;;;;5032639;28;20503;-49
2024/03/21 03:42:05;;;;;;;28.00;16.23;;;10.70;99.90;;;;;;5047797;28;20139;-51
2024/03/21 03:44:31;;;;;;;29.90;15.93;;;10.80;99.90;;;;;;5035517;28;20053;-51
2024/03/21 03:46:56;;;;;;;32.00;17.20;;;10.80;99.90;;;;;;5029781;28;20046;-50
2024/03/21 03:49:22;;;;;;;29.97;16.67;;;10.80;99.90;;;;;;5015197;28;20133;-48
2024/03/21 03:51:47;;;;;;;27.03;15.50;;;10.90;99.90;;;;;;5035018;28;20086;-53
2024/03/21 03:54:13;;;;;;;31.77;17.43;;;10.90;99.90;;;;;;5024580;28;20034;-50
2024/03/21 03:56:39;;;;;;;30.77;17.47;;;10.90;99.90;;;;;;5016262;28;20107;-51
2024/03/21 03:59:04;;;;;;;33.33;18.33;;;10.90;99.90;;;;;;5030429;28;20030;-50
2024/03/21 04:01:30;;;;;;;29.57;15.93;;;11.00;99.90;;;;;;5027585;28;20067;-52
2024/03/21 04:03:55;;;;;;;29.33;16.43;;;11.00;99.90;;;;;;5014838;28;20506;-50
2024/03/21 04:06:21;;;;;;;28.83;15.43;;;11.00;99.90;;;;;;5029012;28;20520;-50
2024/03/21 04:08:47;;;;;;;39.03;17.97;;;11.00;99.90;;;;;;5034310;28;20038;-52
2024/03/21 04:11:16;;;;;;;30.07;15.53;;;11.00;99.90;;;;;;5034456;28;20025;-48
2024/03/21 04:13:42;;;;;;;26.83;15.55;;;11.00;99.90;;;;;;5034605;28;20034;-51
2024/03/21 04:16:13;;;;;;;31.13;16.63;;;11.00;99.90;;;;;;5023766;28;20025;-53
2024/03/21 04:18:39;;;;;;;31.87;16.83;;;11.00;99.90;;;;;;5014803;28;20045;-53
2024/03/21 04:21:05;;;;;;;29.77;16.20;;;11.00;99.90;;;;;;5014559;28;20053;-52
2024/03/21 04:23:30;;;;;;;30.50;16.60;;;11.00;99.90;;;;;;5023999;28;20062;-51
2024/03/21 04:25:56;;;;;;;26.87;15.23;;;11.00;99.90;;;;;;5023292;28;20026;-48
2024/03/21 04:28:22;;;;;;;31.10;16.50;;;11.00;99.90;;;;;;5025074;28;20057;-48
2024/03/21 04:30:47;;;;;;;39.90;19.90;;;11.00;99.90;;;;;;5014420;28;20026;-52
2024/03/21 04:33:13;;;;;;;40.17;20.30;;;11.10;99.90;;;;;;5014401;28;20373;-49
2024/03/21 04:35:42;;;;;;;43.17;20.50;;;11.10;99.90;;;;;;5014034;28;20057;-52
2024/03/21 04:38:08;;;;;;;39.92;19.90;;;11.20;99.90;;;;;;5019664;28;20112;-48
2024/03/21 04:40:34;;;;;;;44.40;20.77;;;11.20;99.90;;;;;;5034011;28;20076;-50
2024/03/21 04:43:00;;;;;;;43.03;22.33;;;11.30;99.90;;;;;;5034040;28;20040;-52
2024/03/21 04:45:26;;;;;;;43.23;20.60;;;11.30;99.90;;;;;;5043075;28;20029;-51
2024/03/21 04:47:52;;;;;;;41.00;21.00;;;11.30;99.90;;;;;;5016865;28;20025;-48
2024/03/21 04:50:18;;;;;;;38.27;19.77;;;11.30;99.90;;;;;;5023875;28;20503;-52
2024/03/21 04:52:44;;;;;;;35.63;18.57;;;11.20;99.90;;;;;;5022552;28;20029;-52
2024/03/21 04:55:10;;;;;;;34.37;17.63;;;11.10;99.90;;;;;;5085555;22;20102;-49
2024/03/21 04:57:36;;;;;;;34.93;16.60;;;11.10;99.90;;;;;;5073853;28;20032;-50
2024/03/21 05:00:04;;;;;;;39.57;18.77;;;11.00;99.90;;;;;;5073316;28;20033;-50
2024/03/21 05:02:30;;;;;;;39.33;18.53;;;10.90;99.90;;;;;;5058249;28;20028;-49
2024/03/21 05:04:55;;;;;;;34.23;17.60;;;10.90;99.90;;;;;;5073636;28;20025;-50
2024/03/21 05:07:21;;;;;;;32.53;17.63;;;10.80;99.90;;;;;;5090913;28;20504;-49
2024/03/21 05:09:47;;;;;;;36.40;17.63;;;10.80;99.90;;;;;;5091340;28;20036;-49
2024/03/21 05:12:13;;;;;;;36.00;17.90;;;10.80;99.90;;;;;;5090740;28;20453;-50
2024/03/21 05:14:39;;;;;;;38.97;17.57;;;10.70;99.90;;;;;;5092112;28;20107;-50
2024/03/21 05:17:04;;;;;;;39.17;17.67;;;10.60;99.90;;;;;;5085043;28;20025;-52
2024/03/21 05:19:31;;;;;;;37.63;18.53;;;10.60;99.90;;;;;;5072193;28;20393;-52
2024/03/21 05:21:57;;;;;;;43.17;19.83;;;10.60;99.90;;;;;;5066501;28;20109;-49
2024/03/21 05:24:22;;;;;;;37.43;18.77;;;10.60;99.90;;;;;;5067756;28;20532;-52
2024/03/21 05:26:48;;;;;;;39.77;19.33;;;10.60;99.90;;;;;;5067594;28;20123;-50
2024/03/21 05:29:13;;;;;;;40.03;19.67;;;10.60;99.90;;;;;;5071459;28;20032;-50
2024/03/21 05:31:42;;;;;;;41.73;20.40;;;10.60;99.90;;;;;;5070584;28;20036;-50
2024/03/21 05:34:08;;;;;;;45.43;21.80;;;10.60;99.90;;;;;;5071428;28;20088;-49
2024/03/21 05:36:34;;;;;;;47.20;21.87;;;10.60;99.90;;;;;;5070686;28;20086;-50
2024/03/21 05:39:00;;;;;;;44.23;21.07;;;10.60;99.90;;;;;;5071148;28;20024;-50
2024/03/21 05:41:25;;;;;;;45.50;21.97;;;10.60;99.90;;;;;;5071234;28;20040;-49
2024/03/21 05:43:51;;;;;;;43.00;21.13;;;10.70;99.90;;;;;;5071219;28;20089;-53
2024/03/21 05:46:17;;;;;;;39.83;20.67;;;10.70;99.90;;;;;;5071378;28;20028;-52
2024/03/21 05:48:43;;;;;;;38.83;20.80;;;10.80;99.90;;;;;;5070892;28;20173;-49
2024/03/21 05:51:09;;;;;;;49.00;21.60;;;10.80;99.90;;;;;;5070529;28;20100;-49
2024/03/21 05:53:34;;;;;;;46.33;21.43;;;10.80;99.90;;;;;;5070323;28;20028;-53
2024/03/21 05:56:04;;;;;;;44.97;21.97;;;10.80;99.90;;;;;;5070320;28;20024;-50
2024/03/21 05:58:30;;;;;;;40.53;20.87;;;10.80;99.90;;;;;;5071099;28;20064;-51
2024/03/21 06:01:03;;;;;;;45.40;23.67;;;10.80;99.90;;;;;;5068639;28;20036;-50
2024/03/21 06:03:30;;;;;;;48.07;23.40;;;10.90;99.90;;;;;;5068279;28;20036;-50
2024/03/21 06:05:55;;;;;;;49.60;24.10;;;10.90;99.90;;;;;;5068224;28;20032;-48
2024/03/21 06:08:21;;;;;;;48.30;23.30;;;10.90;99.90;;;;;;5070400;28;20024;-48
2024/03/21 06:10:47;;;;;;;46.00;23.53;;;11.00;99.90;;;;;;5069263;28;20028;-48
2024/03/21 06:13:12;;;;;;;43.40;22.87;;;11.10;99.90;;;;;;5051426;28;20024;-50
2024/03/21 06:15:38;;;;;;;45.60;24.07;;;11.10;99.90;;;;;;5070081;28;20028;-51
2024/03/21 06:18:04;;;;;;;45.83;24.23;;;11.10;99.90;;;;;;5052696;28;20097;-49
2024/03/21 06:20:30;;;;;;;46.20;23.13;;;11.10;99.90;;;;;;5070462;28;20051;-48
2024/03/21 06:22:55;;;;;;;45.57;24.33;;;11.20;99.90;;;;;;5070471;28;20028;-51
2024/03/21 06:25:21;;;;;;;46.00;25.47;;;11.20;99.90;;;;;;5069865;28;20107;-51
2024/03/21 06:27:48;;;;;;;47.33;25.20;;;11.10;99.90;;;;;;5070050;28;20064;-48
2024/03/21 06:30:14;;;;;;;55.10;27.67;;;11.10;99.90;;;;;;5052036;28;20039;-52
2024/03/21 06:32:40;;;;;;;46.73;24.60;;;11.10;99.90;;;;;;5070093;28;20043;-51
2024/03/21 06:35:06;;;;;;;48.90;26.80;;;11.10;99.90;;;;;;5070093;28;20055;-48
2024/03/21 06:37:33;;;;;;;52.73;26.87;;;11.20;99.90;;;;;;5070483;28;20068;-49
2024/03/21 06:39:59;;;;;;;51.33;27.83;;;11.10;99.90;;;;;;5070290;28;20346;-51
2024/03/21 06:42:25;;;;;;;51.13;27.00;;;11.10;99.90;;;;;;5070746;28;20085;-48
2024/03/21 06:44:51;;;;;;;48.33;25.17;;;11.00;99.90;;;;;;5070423;28;20032;-48
2024/03/21 06:47:16;;;;;;;45.33;25.03;;;11.00;99.90;;;;;;5071554;28;20021;-50
2024/03/21 06:49:42;;;;;;;37.60;22.77;;;11.10;99.90;;;;;;5070560;28;20056;-49
2024/03/21 06:52:07;;;;;;;36.67;20.90;;;11.00;99.90;;;;;;5070941;28;20024;-49
2024/03/21 06:54:33;;;;;;;38.27;20.00;;;11.00;99.90;;;;;;5071393;28;20148;-48
2024/03/21 06:57:00;;;;;;;40.77;19.70;;;11.10;99.90;;;;;;5069944;28;20032;-48
2024/03/21 06:59:25;;;;;;;34.37;20.07;;;11.20;99.90;;;;;;5069647;28;20032;-50
2024/03/21 07:01:51;;;;;;;34.13;19.10;;;11.20;99.90;;;;;;5069220;28;20034;-48
2024/03/21 07:04:17;;;;;;;37.03;20.20;;;11.20;99.90;;;;;;5069395;28;20276;-48
2024/03/21 07:06:43;;;;;;;36.20;19.87;;;11.20;99.90;;;;;;5068764;28;20032;-52
2024/03/21 07:09:08;;;;;;;30.47;16.33;;;11.20;99.90;;;;;;5051737;28;20479;-48
2024/03/21 07:11:34;;;;;;;30.53;16.40;;;11.20;99.90;;;;;;5069072;28;20138;-50
2024/03/21 07:14:01;;;;;;;34.90;19.43;;;11.20;99.90;;;;;;5069220;28;20081;-49
2024/03/21 07:16:27;;;;;;;31.10;16.87;;;11.30;99.90;;;;;;5069239;28;20032;-49
2024/03/21 07:18:53;;;;;;;37.10;16.77;;;11.20;99.90;;;;;;5068950;28;20357;-52
2024/03/21 07:21:19;;;;;;;25.77;15.07;;;11.20;99.90;;;;;;5069179;28;20145;-49
2024/03/21 07:23:44;;;;;;;24.70;15.03;;;11.20;99.90;;;;;;5069129;28;20034;-50
2024/03/21 07:26:10;;;;;;;29.00;15.80;;;11.20;99.90;;;;;;5069349;28;20107;-49
2024/03/21 07:28:35;;;;;;;31.60;18.70;;;11.30;99.90;;;;;;5069527;28;20052;-54
2024/03/21 07:31:01;;;;;;;30.90;17.97;;;11.30;99.90;;;;;;5068876;28;20318;-51
2024/03/21 07:33:26;;;;;;;37.50;18.73;;;11.30;99.90;;;;;;5068892;28;20033;-53
2024/03/21 07:35:55;;;;;;;32.17;17.50;;;11.30;99.90;;;;;;5069047;28;20021;-54
2024/03/21 07:38:21;;;;;;;35.73;18.47;;;11.40;99.90;;;;;;5067962;28;20036;-49
2024/03/21 07:40:57;;;;;;;27.40;15.87;;;11.30;99.90;;;;;;5069020;28;20450;-54
2024/03/21 07:43:23;;;;;;;24.63;14.17;;;11.30;99.90;;;;;;5069170;28;20060;-52
2024/03/21 07:45:48;;;;;;;26.67;15.70;;;11.20;99.90;;;;;;5069061;28;20060;-50
2024/03/21 07:48:14;;;;;;;27.10;13.20;;;11.20;99.90;;;;;;5069107;28;20036;-51
2024/03/21 07:50:39;;;;;;;26.03;13.10;;;11.20;99.90;;;;;;5068917;28;20113;-50
2024/03/21 07:53:06;;;;;;;23.10;12.50;;;11.30;99.90;;;;;;5069044;28;20391;-50
2024/03/21 07:55:32;;;;;;;20.80;12.57;;;11.30;99.90;;;;;;5068808;28;20108;-49
2024/03/21 07:57:58;;;;;;;21.23;12.83;;;11.30;99.90;;;;;;5069253;28;20135;-49
2024/03/21 08:00:23;;;;;;;18.57;11.80;;;11.40;99.90;;;;;;5070114;28;20036;-51
2024/03/21 08:02:50;;;;;;;20.00;12.00;;;11.60;99.90;;;;;;5072791;28;20103;-51
2024/03/21 08:05:15;;;;;;;22.70;13.03;;;11.70;99.90;;;;;;5072654;28;20029;-54
2024/03/21 08:07:41;;;;;;;22.33;13.10;;;11.70;99.90;;;;;;5073019;28;20028;-49
2024/03/21 08:10:07;;;;;;;27.13;14.13;;;11.80;99.90;;;;;;5072456;28;20020;-52
2024/03/21 08:12:33;;;;;;;22.93;12.47;;;11.70;99.90;;;;;;5072968;28;20039;-49
2024/03/21 08:14:58;;;;;;;23.20;12.20;;;11.60;99.90;;;;;;5072628;28;20427;-55
2024/03/21 08:17:24;;;;;;;20.33;10.83;;;11.50;99.90;;;;;;5072771;28;20059;-50
2024/03/21 08:19:53;;;;;;;19.87;10.63;;;11.50;99.90;;;;;;5051352;28;20146;-49
2024/03/21 08:22:19;;;;;;;19.20;9.63;;;11.40;99.90;;;;;;5072560;28;20055;-49
2024/03/21 08:24:45;;;;;;;14.80;9.07;;;11.40;99.90;;;;;;5072597;28;20489;-50
2024/03/21 08:27:10;;;;;;;12.87;7.00;;;11.30;99.90;;;;;;5072471;28;20016;-53
2024/03/21 08:29:36;;;;;;;12.83;7.20;;;11.30;99.90;;;;;;5051064;28;20136;-50
2024/03/21 08:32:07;;;;;;;11.13;6.87;;;11.30;99.90;;;;;;5070883;28;20105;-49
2024/03/21 08:34:33;;;;;;;10.67;6.70;;;11.20;99.90;;;;;;5072042;28;20374;-51
2024/03/21 08:36:58;;;;;;;10.43;6.63;;;11.10;99.90;;;;;;5072588;28;20021;-50
2024/03/21 08:39:24;;;;;;;9.03;5.00;;;11.10;99.90;;;;;;5072788;28;20086;-51
2024/03/21 08:41:50;;;;;;;7.47;5.00;;;11.00;99.90;;;;;;5072106;28;20024;-52
2024/03/21 08:44:15;;;;;;;8.43;4.60;;;11.00;99.90;;;;;;5072465;28;20508;-48
2024/03/21 08:46:41;;;;;;;7.23;4.20;;;11.00;99.90;;;;;;5072231;28;20099;-51
2024/03/21 08:49:06;;;;;;;8.67;5.00;;;11.00;99.90;;;;;;5072022;28;20032;-49
2024/03/21 08:51:32;;;;;;;9.23;5.10;;;11.00;99.90;;;;;;5071920;28;20086;-51
2024/03/21 08:53:58;;;;;;;7.33;4.70;;;11.10;99.90;;;;;;5051720;28;20041;-53
2024/03/21 08:56:23;;;;;;;8.10;4.70;;;11.10;99.90;;;;;;5072340;28;20124;-52
2024/03/21 08:58:49;;;;;;;7.60;4.90;;;11.00;99.90;;;;;;5072434;28;20021;-54
2024/03/21 09:01:15;;;;;;;7.73;5.00;;;11.00;99.90;;;;;;5071833;28;20020;-50
2024/03/21 09:03:40;;;;;;;10.00;5.97;;;11.10;99.90;;;;;;5071484;28;20052;-49
2024/03/21 09:06:06;;;;;;;10.67;5.87;;;11.10;99.90;;;;;;5071636;28;20036;-50
2024/03/21 09:08:34;;;;;;;9.30;6.30;;;11.10;99.90;;;;;;5071621;28;20089;-50
2024/03/21 09:11:03;;;;;;;12.73;7.70;;;11.30;99.90;;;;;;5071543;28;20033;-53
2024/03/21 09:13:30;;;;;;;14.32;8.70;;;11.20;99.90;;;;;;5071413;28;20039;-54
2024/03/21 09:15:56;;;;;;;14.47;7.97;;;11.20;99.90;;;;;;5071568;28;20366;-54
2024/03/21 09:18:22;;;;;;;9.87;6.57;;;11.40;99.90;;;;;;5071409;28;20025;-55
2024/03/21 09:20:48;;;;;;;11.37;6.27;;;11.60;99.90;;;;;;5071695;28;20037;-50
2024/03/21 09:23:14;;;;;;;8.47;5.20;;;11.70;99.90;;;;;;5071497;28;20054;-50
2024/03/21 09:25:39;;;;;;;9.40;5.97;;;11.80;99.90;;;;;;5049848;28;20035;-52
2024/03/21 09:28:06;;;;;;;8.57;6.00;;;11.80;99.90;;;;;;5071740;28;20042;-54
2024/03/21 09:30:31;;;;;;;12.60;6.77;;;11.80;99.90;;;;;;5071162;28;20142;-52
2024/03/21 09:32:57;;;;;;;12.90;8.40;;;11.80;99.90;;;;;;5071399;28;20497;-54
2024/03/21 09:35:23;;;;;;;13.30;8.48;;;11.80;99.90;;;;;;5053413;28;20044;-49
2024/03/21 09:37:49;;;;;;;11.35;6.80;;;11.90;99.90;;;;;;5071617;28;20024;-52
2024/03/21 09:40:17;;;;;;;11.50;8.00;;;12.00;99.90;;;;;;5070952;28;20455;-48
2024/03/21 09:42:43;;;;;;;9.23;7.17;;;11.90;99.90;;;;;;5071541;28;20029;-52
2024/03/21 09:45:13;;;;;;;9.97;6.73;;;11.80;99.90;;;;;;5070804;28;20465;-51
2024/03/21 09:47:40;;;;;;;12.30;6.60;;;11.70;99.90;;;;;;5071277;28;20032;-50
2024/03/21 09:50:10;;;;;;;9.33;6.30;;;11.70;99.90;;;;;;5070551;28;20074;-49
2024/03/21 09:52:37;;;;;;;10.00;6.07;;;11.50;99.90;;;;;;5070764;28;20040;-50
2024/03/21 09:55:11;;;;;;;9.53;5.80;;;11.60;99.90;;;;;;5055933;28;20031;-49
2024/03/21 09:57:36;;;;;;;9.63;5.80;;;11.50;99.90;;;;;;5066450;28;20458;-49
2024/03/21 10:00:02;;;;;;;9.60;6.20;;;11.60;99.90;;;;;;5052655;28;20150;-50
2024/03/21 10:02:31;;;;;;;8.43;5.22;;;11.70;99.90;;;;;;5070313;28;20057;-49
2024/03/21 10:04:57;;;;;;;9.07;4.67;;;11.80;99.90;;;;;;5070058;28;20080;-50
2024/03/21 10:07:24;;;;;;;7.20;5.20;;;11.70;99.90;;;;;;5070324;28;20433;-49
2024/03/21 10:09:56;;;;;;;9.53;4.70;;;11.70;99.90;;;;;;5070412;28;20029;-51
2024/03/21 10:12:22;;;;;;;7.80;5.20;;;11.60;99.90;;;;;;5069985;28;20021;-49
2024/03/21 10:14:51;;;;;;;9.77;5.30;;;11.50;99.90;;;;;;5069657;28;20456;-50
2024/03/21 10:17:16;;;;;;;8.75;5.63;;;11.60;99.90;;;;;;5070198;28;20055;-49
2024/03/21 10:19:42;;;;;;;9.70;6.00;;;11.70;99.90;;;;;;5070107;28;20021;-49
2024/03/21 10:22:16;;;;;;;12.18;6.22;;;11.80;99.90;;;;;;5070093;28;20032;-49
2024/03/21 10:24:41;;;;;;;10.57;6.47;;;12.00;99.90;;;;;;5069594;28;20101;-50
2024/03/21 10:27:13;;;;;;;14.60;7.65;;;12.00;99.90;;;;;;5069980;28;20040;-50
2024/03/21 10:29:40;;;;;;;9.60;5.95;;;12.10;99.90;;;;;;5069930;28;20024;-48
2024/03/21 10:32:14;;;;;;;9.27;5.30;;;12.20;99.90;;;;;;5069844;28;20029;-50
2024/03/21 10:34:40;;;;;;;7.88;4.85;;;12.30;99.90;;;;;;5070819;28;20066;-51
2024/03/21 10:37:07;;;;;;;7.43;4.03;;;12.30;99.90;;;;;;5070408;28;20229;-51
2024/03/21 10:39:32;;;;;;;7.72;4.13;;;12.30;99.90;;;;;;5069859;28;20024;-51
2024/03/21 10:42:01;;;;;;;8.32;4.70;;;12.40;99.90;;;;;;5070429;28;20090;-52
2024/03/21 10:44:27;;;;;;;9.60;4.80;;;12.30;99.90;;;;;;5069854;28;20020;-50
2024/03/21 10:46:57;;;;;;;8.77;4.95;;;12.30;99.90;;;;;;5069870;28;20028;-50
2024/03/21 10:49:23;;;;;;;10.73;4.40;;;12.30;99.90;;;;;;5052103;28;20028;-50
2024/03/21 10:51:52;;;;;;;8.32;4.57;;;12.50;99.90;;;;;;5069622;28;20692;-53
2024/03/21 10:54:19;;;;;;;8.57;5.03;;;12.60;99.90;;;;;;5069485;28;20040;-50
2024/03/21 10:56:46;;;;;;;8.93;4.82;;;12.60;99.90;;;;;;5069533;28;20028;-51
2024/03/21 10:59:15;;;;;;;9.68;4.50;;;12.70;99.90;;;;;;5069704;28;20020;-50
2024/03/21 11:01:42;;;;;;;7.20;3.80;;;13.00;99.90;;;;;;5069341;28;20108;-51
2024/03/21 11:04:14;;;;;;;7.53;3.47;;;13.20;99.90;;;;;;5069404;28;20039;-48
2024/03/21 11:06:42;;;;;;;4.13;3.33;;;13.30;99.90;;;;;;5070073;28;20059;-50
2024/03/21 11:09:13;;;;;;;6.10;3.10;;;13.40;99.90;;;;;;5069686;28;20040;-48
2024/03/21 11:11:39;;;;;;;7.57;3.30;;;13.40;99.90;;;;;;5069436;28;20025;-49
2024/03/21 11:14:09;;;;;;;5.97;3.30;;;13.50;99.90;;;;;;5069020;28;20079;-47
2024/03/21 11:16:40;;;;;;;7.43;3.35;;;13.50;99.90;;;;;;5069240;28;20036;-47
2024/03/21 11:19:06;;;;;;;6.03;3.30;;;13.40;99.90;;;;;;5069079;28;20027;-48
2024/03/21 11:21:32;;;;;;;8.05;3.70;;;13.30;99.90;;;;;;5069373;28;20446;-51
2024/03/21 11:23:57;;;;;;;7.40;3.45;;;13.30;99.90;;;;;;5069400;28;20040;-51
2024/03/21 11:26:23;;;;;;;6.85;3.53;;;13.30;99.90;;;;;;5068709;28;20025;-47
2024/03/21 11:28:52;;;;;;;7.72;3.40;;;13.30;99.90;;;;;;5069412;28;20095;-49
2024/03/21 11:31:23;;;;;;;7.47;3.08;;;13.20;99.90;;;;;;5068614;28;20113;-51
2024/03/21 11:33:49;;;;;;;9.18;5.50;;;13.10;99.90;;;;;;5068887;28;20029;-49
2024/03/21 11:36:17;;;;;;;8.75;4.15;;;13.20;99.90;;;;;;5071409;28;20039;-49
2024/03/21 11:38:43;;;;;;;8.68;3.83;;;13.10;99.90;;;;;;5073367;28;20020;-50
2024/03/21 11:41:18;;;;;;;7.55;3.88;;;13.10;99.90;;;;;;5073283;28;20560;-48
2024/03/21 11:43:52;;;;;;;8.52;4.50;;;13.10;99.90;;;;;;5073416;28;20045;-51
2024/03/21 11:46:19;;;;;;;9.25;5.00;;;13.10;99.90;;;;;;5072864;28;20477;-48
2024/03/21 11:49:01;;;;;;;6.00;3.55;;;13.10;99.90;;;;;;5073089;28;20048;-49
2024/03/21 11:51:29;;;;;;;4.80;2.78;;;13.20;99.90;;;;;;5072915;28;20482;-48
2024/03/21 11:53:55;;;;;;;5.70;2.72;;;13.30;99.90;;;;;;5072513;28;20032;-50
2024/03/21 11:56:21;;;;;;;4.75;2.20;;;13.30;99.90;;;;;;5055225;28;20694;-47
2024/03/21 11:58:46;;;;;;;4.82;2.40;;;13.40;99.90;;;;;;5056907;28;20032;-49
2024/03/21 12:01:12;;;;;;;4.03;2.33;;;13.40;99.90;;;;;;5070082;28;20485;-50
2024/03/21 12:03:38;;;;;;;3.75;2.10;;;13.50;99.90;;;;;;5070718;28;20658;-49
2024/03/21 12:06:03;;;;;;;2.63;1.73;;;13.50;99.90;;;;;;5071843;28;20477;-51
2024/03/21 12:08:29;;;;;;;5.78;2.22;;;13.60;99.90;;;;;;5071529;28;20055;-49
2024/03/21 12:10:55;;;;;;;5.30;2.25;;;13.60;99.90;;;;;;5072115;28;20040;-50
2024/03/21 12:13:21;;;;;;;6.57;3.20;;;13.60;99.90;;;;;;5072220;28;20114;-52
2024/03/21 12:15:46;;;;;;;7.40;3.78;;;13.70;99.90;;;;;;5057592;28;20025;-49
2024/03/21 12:18:12;;;;;;;7.00;3.88;;;13.60;99.90;;;;;;5055748;28;20017;-47
2024/03/21 12:20:38;;;;;;;7.22;3.63;;;13.50;99.90;;;;;;5074102;28;20435;-47
2024/03/21 12:23:03;;;;;;;5.25;2.90;;;13.40;99.90;;;;;;5071626;28;20038;-47
2024/03/21 12:25:29;;;;;;;10.18;3.75;;;13.40;99.90;;;;;;5054392;28;20120;-51
2024/03/21 12:27:56;;;;;;;8.80;3.05;;;13.40;99.90;;;;;;5073869;28;20124;-49
2024/03/21 12:30:21;;;;;;;5.40;2.88;;;13.50;99.90;;;;;;5072605;28;20035;-49
2024/03/21 12:32:47;;;;;;;5.70;2.47;;;13.60;99.90;;;;;;5060582;28;20104;-48
2024/03/21 12:35:12;;;;;;;3.83;2.00;;;13.70;99.90;;;;;;5073059;28;20119;-48
2024/03/21 12:37:40;;;;;;;5.55;2.45;;;14.00;99.90;;;;;;5073780;28;20032;-47